sensor_id;sensor_type;location;lat;lon;timestamp;pressure;altitude;pressure_sealevel;temperature
70415;BMP280;57837;52.064;113.478;2023-04-24T00:02:28;94674.06;;;13.78
70415;BMP280;57837;52.064;113.478;2023-04-24T00:05:32;94669.94;;;13.90
70415;BMP280;57837;52.064;113.478;2023-04-24T00:08:36;94670.00;;;14.53
70415;BMP280;57837;52.064;113.478;2023-04-24T00:11:41;94671.16;;;14.25
70415;BMP280;57837;52.064;113.478;2023-04-24T00:14:45;94671.47;;;14.36
70415;BMP280;57837;52.064;113.478;2023-04-24T00:17:48;94658.50;;;15.06
70415;BMP280;57837;52.064;113.478;2023-04-24T00:20:53;94665.91;;;14.98
70415;BMP280;57837;52.064;113.478;2023-04-24T00:23:56;94660.66;;;15.16
70415;BMP280;57837;52.064;113.478;2023-04-24T00:26:59;94654.81;;;15.63
70415;BMP280;57837;52.064;113.478;2023-04-24T00:30:04;94660.16;;;15.69
70415;BMP280;57837;52.064;113.478;2023-04-24T00:33:09;94651.53;;;16.25
70415;BMP280;57837;52.064;113.478;2023-04-24T00:36:13;94651.44;;;15.39
70415;BMP280;57837;52.064;113.478;2023-04-24T00:39:20;94632.00;;;16.94
70415;BMP280;57837;52.064;113.478;2023-04-24T00:42:24;94644.16;;;16.38
70415;BMP280;57837;52.064;113.478;2023-04-24T00:45:29;94633.16;;;15.96
70415;BMP280;57837;52.064;113.478;2023-04-24T00:48:34;94637.69;;;14.78
70415;BMP280;57837;52.064;113.478;2023-04-24T00:51:38;94628.88;;;14.21
70415;BMP280;57837;52.064;113.478;2023-04-24T00:54:44;94623.94;;;14.50
70415;BMP280;57837;52.064;113.478;2023-04-24T00:57:50;94615.66;;;14.88
70415;BMP280;57837;52.064;113.478;2023-04-24T01:00:54;94621.88;;;13.63
70415;BMP280;57837;52.064;113.478;2023-04-24T01:04:00;94621.34;;;13.87
70415;BMP280;57837;52.064;113.478;2023-04-24T01:07:05;94612.19;;;14.82
70415;BMP280;57837;52.064;113.478;2023-04-24T01:10:14;94612.63;;;14.90
70415;BMP280;57837;52.064;113.478;2023-04-24T01:13:19;94619.59;;;14.56
70415;BMP280;57837;52.064;113.478;2023-04-24T01:16:24;94605.22;;;15.30
70415;BMP280;57837;52.064;113.478;2023-04-24T01:19:28;94605.09;;;16.05
70415;BMP280;57837;52.064;113.478;2023-04-24T01:22:33;94606.47;;;16.45
70415;BMP280;57837;52.064;113.478;2023-04-24T01:25:38;94591.31;;;16.05
70415;BMP280;57837;52.064;113.478;2023-04-24T01:28:42;94605.66;;;15.85
70415;BMP280;57837;52.064;113.478;2023-04-24T01:31:46;94598.28;;;15.27
70415;BMP280;57837;52.064;113.478;2023-04-24T01:34:51;94593.44;;;15.02
70415;BMP280;57837;52.064;113.478;2023-04-24T01:37:54;94584.59;;;15.89
70415;BMP280;57837;52.064;113.478;2023-04-24T01:40:59;94590.25;;;15.40
70415;BMP280;57837;52.064;113.478;2023-04-24T01:44:03;94598.28;;;15.27
70415;BMP280;57837;52.064;113.478;2023-04-24T01:47:07;94579.94;;;15.46
70415;BMP280;57837;52.064;113.478;2023-04-24T01:50:11;94587.97;;;14.91
70415;BMP280;57837;52.064;113.478;2023-04-24T01:53:15;94577.50;;;14.22
70415;BMP280;57837;52.064;113.478;2023-04-24T01:56:21;94566.44;;;15.14
70415;BMP280;57837;52.064;113.478;2023-04-24T01:59:26;94573.09;;;15.48
70415;BMP280;57837;52.064;113.478;2023-04-24T02:02:31;94574.66;;;15.78
70415;BMP280;57837;52.064;113.478;2023-04-24T02:05:35;94575.06;;;15.29
70415;BMP280;57837;52.064;113.478;2023-04-24T02:08:38;94574.44;;;15.43
70415;BMP280;57837;52.064;113.478;2023-04-24T02:11:43;94559.25;;;14.67
70415;BMP280;57837;52.064;113.478;2023-04-24T02:14:46;94563.00;;;15.41
70415;BMP280;57837;52.064;113.478;2023-04-24T02:17:50;94545.13;;;14.83
70415;BMP280;57837;52.064;113.478;2023-04-24T02:20:54;94548.41;;;14.32
70415;BMP280;57837;52.064;113.478;2023-04-24T02:23:58;94546.84;;;14.26
70415;BMP280;57837;52.064;113.478;2023-04-24T02:27:01;94540.06;;;14.19
70415;BMP280;57837;52.064;113.478;2023-04-24T02:30:06;94536.78;;;15.02
70415;BMP280;57837;52.064;113.478;2023-04-24T02:33:11;94541.03;;;14.40
70415;BMP280;57837;52.064;113.478;2023-04-24T02:36:15;94532.66;;;13.14
70415;BMP280;57837;52.064;113.478;2023-04-24T02:39:19;94537.97;;;13.32
70415;BMP280;57837;52.064;113.478;2023-04-24T02:42:23;94527.59;;;14.14
70415;BMP280;57837;52.064;113.478;2023-04-24T02:45:26;94524.91;;;14.69
70415;BMP280;57837;52.064;113.478;2023-04-24T02:48:31;94518.25;;;14.68
70415;BMP280;57837;52.064;113.478;2023-04-24T02:51:34;94500.84;;;13.68
70415;BMP280;57837;52.064;113.478;2023-04-24T02:54:41;94513.31;;;13.06
70415;BMP280;57837;52.064;113.478;2023-04-24T02:57:45;94500.81;;;13.32
70415;BMP280;57837;52.064;113.478;2023-04-24T03:00:53;94506.72;;;13.41
70415;BMP280;57837;52.064;113.478;2023-04-24T03:03:57;94503.41;;;12.82
70415;BMP280;57837;52.064;113.478;2023-04-24T03:07:01;94502.22;;;11.75
70415;BMP280;57837;52.064;113.478;2023-04-24T03:10:05;94501.44;;;11.52
70415;BMP280;57837;52.064;113.478;2023-04-24T03:13:09;94495.47;;;11.77
70415;BMP280;57837;52.064;113.478;2023-04-24T03:16:12;94500.06;;;12.08
70415;BMP280;57837;52.064;113.478;2023-04-24T03:19:16;94487.22;;;12.88
70415;BMP280;57837;52.064;113.478;2023-04-24T03:22:32;94491.38;;;12.76
70415;BMP280;57837;52.064;113.478;2023-04-24T03:25:40;94478.88;;;12.09
70415;BMP280;57837;52.064;113.478;2023-04-24T03:28:47;94474.03;;;11.98
70415;BMP280;57837;52.064;113.478;2023-04-24T03:31:51;94475.06;;;11.20
70415;BMP280;57837;52.064;113.478;2023-04-24T03:34:55;94469.25;;;11.15
70415;BMP280;57837;52.064;113.478;2023-04-24T03:38:00;94482.50;;;10.67
70415;BMP280;57837;52.064;113.478;2023-04-24T03:41:12;94470.25;;;10.55
70415;BMP280;57837;52.064;113.478;2023-04-24T03:44:23;94460.69;;;9.98
70415;BMP280;57837;52.064;113.478;2023-04-24T03:47:27;94458.22;;;10.35
70415;BMP280;57837;52.064;113.478;2023-04-24T03:50:34;94460.91;;;10.32
70415;BMP280;57837;52.064;113.478;2023-04-24T03:53:39;94451.22;;;10.61
70415;BMP280;57837;52.064;113.478;2023-04-24T03:56:45;94446.78;;;10.87
70415;BMP280;57837;52.064;113.478;2023-04-24T03:59:49;94443.88;;;10.18
70415;BMP280;57837;52.064;113.478;2023-04-24T04:02:53;94436.41;;;10.08
70415;BMP280;57837;52.064;113.478;2023-04-24T04:05:57;94424.13;;;10.24
70415;BMP280;57837;52.064;113.478;2023-04-24T04:09:03;94424.53;;;10.23
70415;BMP280;57837;52.064;113.478;2023-04-24T04:12:06;94426.19;;;10.17
70415;BMP280;57837;52.064;113.478;2023-04-24T04:15:12;94419.44;;;9.78
70415;BMP280;57837;52.064;113.478;2023-04-24T04:18:16;94413.63;;;9.74
70415;BMP280;57837;52.064;113.478;2023-04-24T04:21:20;94411.34;;;9.76
70415;BMP280;57837;52.064;113.478;2023-04-24T04:24:30;94407.72;;;9.73
70415;BMP280;57837;52.064;113.478;2023-04-24T04:27:34;94398.13;;;9.86
70415;BMP280;57837;52.064;113.478;2023-04-24T04:30:44;94399.34;;;9.98
70415;BMP280;57837;52.064;113.478;2023-04-24T04:33:48;94392.84;;;10.19
70415;BMP280;57837;52.064;113.478;2023-04-24T04:36:52;94381.28;;;10.23
70415;BMP280;57837;52.064;113.478;2023-04-24T04:40:14;94386.00;;;10.12
70415;BMP280;57837;52.064;113.478;2023-04-24T04:43:28;94381.03;;;10.05
70415;BMP280;57837;52.064;113.478;2023-04-24T04:46:34;94378.31;;;9.96
70415;BMP280;57837;52.064;113.478;2023-04-24T04:49:48;94365.84;;;9.49
70415;BMP280;57837;52.064;113.478;2023-04-24T04:52:55;94374.28;;;9.37
70415;BMP280;57837;52.064;113.478;2023-04-24T04:56:06;94363.75;;;9.44
70415;BMP280;57837;52.064;113.478;2023-04-24T04:59:14;94375.00;;;9.38
70415;BMP280;57837;52.064;113.478;2023-04-24T05:02:19;94352.44;;;9.38
70415;BMP280;57837;52.064;113.478;2023-04-24T05:05:23;94347.50;;;8.99
70415;BMP280;57837;52.064;113.478;2023-04-24T05:08:27;94349.50;;;8.91
70415;BMP280;57837;52.064;113.478;2023-04-24T05:11:30;94345.72;;;8.80
70415;BMP280;57837;52.064;113.478;2023-04-24T05:14:36;94344.50;;;8.84
70415;BMP280;57837;52.064;113.478;2023-04-24T05:17:40;94344.44;;;8.88
70415;BMP280;57837;52.064;113.478;2023-04-24T05:20:45;94335.22;;;8.87
70415;BMP280;57837;52.064;113.478;2023-04-24T05:23:49;94335.47;;;8.60
70415;BMP280;57837;52.064;113.478;2023-04-24T05:27:06;94329.53;;;8.43
70415;BMP280;57837;52.064;113.478;2023-04-24T05:30:14;94326.38;;;8.52
70415;BMP280;57837;52.064;113.478;2023-04-24T05:33:18;94332.31;;;8.68
70415;BMP280;57837;52.064;113.478;2023-04-24T05:36:21;94321.44;;;8.61
70415;BMP280;57837;52.064;113.478;2023-04-24T05:39:26;94305.13;;;8.80
70415;BMP280;57837;52.064;113.478;2023-04-24T05:42:29;94309.66;;;8.60
70415;BMP280;57837;52.064;113.478;2023-04-24T05:45:33;94313.47;;;8.35
70415;BMP280;57837;52.064;113.478;2023-04-24T05:48:39;94306.34;;;8.23
70415;BMP280;57837;52.064;113.478;2023-04-24T05:51:43;94311.59;;;8.20
70415;BMP280;57837;52.064;113.478;2023-04-24T05:54:47;94300.47;;;8.23
70415;BMP280;57837;52.064;113.478;2023-04-24T05:57:55;94291.66;;;8.56
70415;BMP280;57837;52.064;113.478;2023-04-24T06:01:00;94285.53;;;8.50
70415;BMP280;57837;52.064;113.478;2023-04-24T06:04:05;94271.25;;;8.29
70415;BMP280;57837;52.064;113.478;2023-04-24T06:07:13;94282.59;;;8.32
70415;BMP280;57837;52.064;113.478;2023-04-24T06:10:18;94265.25;;;8.32
70415;BMP280;57837;52.064;113.478;2023-04-24T06:13:21;94269.34;;;8.66
70415;BMP280;57837;52.064;113.478;2023-04-24T06:16:45;94269.72;;;8.64
70415;BMP280;57837;52.064;113.478;2023-04-24T06:20:07;94270.91;;;8.76
70415;BMP280;57837;52.064;113.478;2023-04-24T06:23:11;94250.38;;;8.56
70415;BMP280;57837;52.064;113.478;2023-04-24T06:26:16;94260.75;;;8.53
70415;BMP280;57837;52.064;113.478;2023-04-24T06:29:20;94256.09;;;8.64
70415;BMP280;57837;52.064;113.478;2023-04-24T06:32:24;94247.22;;;8.65
70415;BMP280;57837;52.064;113.478;2023-04-24T06:35:29;94240.91;;;8.82
70415;BMP280;57837;52.064;113.478;2023-04-24T06:38:32;94241.03;;;8.46
70415;BMP280;57837;52.064;113.478;2023-04-24T06:41:37;94234.88;;;8.08
70415;BMP280;57837;52.064;113.478;2023-04-24T06:44:43;94238.97;;;8.21
70415;BMP280;57837;52.064;113.478;2023-04-24T06:47:48;94228.38;;;8.19
70415;BMP280;57837;52.064;113.478;2023-04-24T06:50:52;94223.66;;;8.14
70415;BMP280;57837;52.064;113.478;2023-04-24T06:53:56;94236.00;;;8.07
70415;BMP280;57837;52.064;113.478;2023-04-24T06:57:00;94221.66;;;8.06
70415;BMP280;57837;52.064;113.478;2023-04-24T07:00:07;94223.91;;;8.20
70415;BMP280;57837;52.064;113.478;2023-04-24T07:03:13;94225.16;;;7.95
70415;BMP280;57837;52.064;113.478;2023-04-24T07:06:17;94207.69;;;7.87
70415;BMP280;57837;52.064;113.478;2023-04-24T07:09:22;94212.31;;;8.12
70415;BMP280;57837;52.064;113.478;2023-04-24T07:12:26;94195.00;;;8.28
70415;BMP280;57837;52.064;113.478;2023-04-24T07:15:30;94202.91;;;8.38
70415;BMP280;57837;52.064;113.478;2023-04-24T07:18:36;94201.44;;;8.36
70415;BMP280;57837;52.064;113.478;2023-04-24T07:21:40;94200.66;;;8.40
70415;BMP280;57837;52.064;113.478;2023-04-24T07:24:44;94197.31;;;8.23
70415;BMP280;57837;52.064;113.478;2023-04-24T07:27:48;94187.81;;;8.36
70415;BMP280;57837;52.064;113.478;2023-04-24T07:30:52;94195.16;;;8.38
70415;BMP280;57837;52.064;113.478;2023-04-24T07:33:57;94195.78;;;8.09
70415;BMP280;57837;52.064;113.478;2023-04-24T07:37:01;94187.41;;;8.05
70415;BMP280;57837;52.064;113.478;2023-04-24T07:40:06;94176.03;;;8.35
70415;BMP280;57837;52.064;113.478;2023-04-24T07:43:10;94190.41;;;8.36
70415;BMP280;57837;52.064;113.478;2023-04-24T07:46:13;94198.28;;;8.29
70415;BMP280;57837;52.064;113.478;2023-04-24T07:49:18;94190.81;;;8.18
70415;BMP280;57837;52.064;113.478;2023-04-24T07:52:23;94183.16;;;8.31
70415;BMP280;57837;52.064;113.478;2023-04-24T07:55:28;94178.91;;;8.53
70415;BMP280;57837;52.064;113.478;2023-04-24T07:58:31;94175.06;;;8.61
70415;BMP280;57837;52.064;113.478;2023-04-24T08:01:34;94170.72;;;8.58
70415;BMP280;57837;52.064;113.478;2023-04-24T08:04:38;94162.41;;;8.67
70415;BMP280;57837;52.064;113.478;2023-04-24T08:07:42;94178.28;;;8.65
70415;BMP280;57837;52.064;113.478;2023-04-24T08:10:46;94167.34;;;8.45
70415;BMP280;57837;52.064;113.478;2023-04-24T08:13:50;94173.22;;;8.46
70415;BMP280;57837;52.064;113.478;2023-04-24T08:16:54;94172.75;;;8.34
70415;BMP280;57837;52.064;113.478;2023-04-24T08:19:59;94168.41;;;8.15
70415;BMP280;57837;52.064;113.478;2023-04-24T08:23:04;94168.88;;;8.10
70415;BMP280;57837;52.064;113.478;2023-04-24T08:26:08;94174.00;;;7.94
70415;BMP280;57837;52.064;113.478;2023-04-24T08:29:11;94159.22;;;8.14
70415;BMP280;57837;52.064;113.478;2023-04-24T08:32:16;94146.63;;;8.32
70415;BMP280;57837;52.064;113.478;2023-04-24T08:35:19;94160.09;;;8.40
70415;BMP280;57837;52.064;113.478;2023-04-24T08:38:23;94153.88;;;8.38
70415;BMP280;57837;52.064;113.478;2023-04-24T08:41:27;94148.63;;;8.25
70415;BMP280;57837;52.064;113.478;2023-04-24T08:44:32;94160.16;;;8.20
70415;BMP280;57837;52.064;113.478;2023-04-24T08:47:38;94150.66;;;8.01
70415;BMP280;57837;52.064;113.478;2023-04-24T08:50:42;94142.38;;;8.10
70415;BMP280;57837;52.064;113.478;2023-04-24T08:53:48;94148.56;;;7.96
70415;BMP280;57837;52.064;113.478;2023-04-24T08:56:54;94145.19;;;7.99
70415;BMP280;57837;52.064;113.478;2023-04-24T09:00:01;94144.03;;;8.00
70415;BMP280;57837;52.064;113.478;2023-04-24T09:03:06;94141.06;;;8.02
70415;BMP280;57837;52.064;113.478;2023-04-24T09:06:11;94136.00;;;8.14
70415;BMP280;57837;52.064;113.478;2023-04-24T09:09:16;94143.09;;;8.10
70415;BMP280;57837;52.064;113.478;2023-04-24T09:12:22;94137.75;;;8.01
70415;BMP280;57837;52.064;113.478;2023-04-24T09:15:26;94129.53;;;7.74
70415;BMP280;57837;52.064;113.478;2023-04-24T09:18:30;94134.13;;;7.82
70415;BMP280;57837;52.064;113.478;2023-04-24T09:21:35;94139.84;;;7.90
70415;BMP280;57837;52.064;113.478;2023-04-24T09:24:39;94137.63;;;7.92
70415;BMP280;57837;52.064;113.478;2023-04-24T09:27:44;94138.31;;;7.92
70415;BMP280;57837;52.064;113.478;2023-04-24T09:34:08;94137.19;;;7.93
70415;BMP280;57837;52.064;113.478;2023-04-24T09:37:28;94133.00;;;7.83
70415;BMP280;57837;52.064;113.478;2023-04-24T09:40:34;94132.69;;;7.81
70415;BMP280;57837;52.064;113.478;2023-04-24T09:43:42;94131.63;;;7.79
70415;BMP280;57837;52.064;113.478;2023-04-24T09:46:52;94122.03;;;7.79
70415;BMP280;57837;52.064;113.478;2023-04-24T09:49:58;94126.06;;;7.80
70415;BMP280;57837;52.064;113.478;2023-04-24T09:53:03;94119.63;;;7.72
70415;BMP280;57837;52.064;113.478;2023-04-24T09:56:09;94120.41;;;7.53
70415;BMP280;57837;52.064;113.478;2023-04-24T09:59:14;94126.63;;;7.36
70415;BMP280;57837;52.064;113.478;2023-04-24T10:02:20;94124.06;;;7.36
70415;BMP280;57837;52.064;113.478;2023-04-24T10:05:27;94119.63;;;7.36
70415;BMP280;57837;52.064;113.478;2023-04-24T10:08:35;94121.81;;;7.38
70415;BMP280;57837;52.064;113.478;2023-04-24T10:11:45;94118.97;;;7.32
70415;BMP280;57837;52.064;113.478;2023-04-24T10:14:49;94121.44;;;7.55
70415;BMP280;57837;52.064;113.478;2023-04-24T10:17:53;94125.63;;;7.49
70415;BMP280;57837;52.064;113.478;2023-04-24T10:21:00;94113.75;;;7.36
70415;BMP280;57837;52.064;113.478;2023-04-24T10:24:04;94116.81;;;7.31
70415;BMP280;57837;52.064;113.478;2023-04-24T10:27:13;94113.13;;;7.84
70415;BMP280;57837;52.064;113.478;2023-04-24T10:30:19;94109.94;;;7.60
70415;BMP280;57837;52.064;113.478;2023-04-24T10:33:23;94108.94;;;7.38
70415;BMP280;57837;52.064;113.478;2023-04-24T10:36:27;94114.41;;;7.40
70415;BMP280;57837;52.064;113.478;2023-04-24T10:39:32;94097.19;;;7.37
70415;BMP280;57837;52.064;113.478;2023-04-24T10:42:40;94106.19;;;7.09
70415;BMP280;57837;52.064;113.478;2023-04-24T10:46:03;94109.91;;;6.84
70415;BMP280;57837;52.064;113.478;2023-04-24T10:49:07;94106.50;;;6.71
70415;BMP280;57837;52.064;113.478;2023-04-24T10:52:14;94110.69;;;6.62
70415;BMP280;57837;52.064;113.478;2023-04-24T10:55:41;94114.19;;;6.52
70415;BMP280;57837;52.064;113.478;2023-04-24T10:58:54;94114.03;;;6.39
70415;BMP280;57837;52.064;113.478;2023-04-24T11:01:57;94116.97;;;6.37
70415;BMP280;57837;52.064;113.478;2023-04-24T11:05:03;94119.22;;;6.35
70415;BMP280;57837;52.064;113.478;2023-04-24T11:11:17;94120.84;;;6.26
70415;BMP280;57837;52.064;113.478;2023-04-24T11:14:23;94114.88;;;6.05
70415;BMP280;57837;52.064;113.478;2023-04-24T11:17:32;94119.44;;;5.98
70415;BMP280;57837;52.064;113.478;2023-04-24T11:20:42;94122.47;;;5.89
70415;BMP280;57837;52.064;113.478;2023-04-24T11:23:46;94123.28;;;5.83
70415;BMP280;57837;52.064;113.478;2023-04-24T11:27:13;94130.81;;;5.70
70415;BMP280;57837;52.064;113.478;2023-04-24T11:30:19;94122.56;;;5.55
70415;BMP280;57837;52.064;113.478;2023-04-24T11:33:23;94132.22;;;5.44
70415;BMP280;57837;52.064;113.478;2023-04-24T11:36:26;94131.63;;;5.33
70415;BMP280;57837;52.064;113.478;2023-04-24T11:39:36;94126.56;;;5.26
70415;BMP280;57837;52.064;113.478;2023-04-24T11:42:44;94124.88;;;5.12
70415;BMP280;57837;52.064;113.478;2023-04-24T11:45:50;94123.16;;;5.02
70415;BMP280;57837;52.064;113.478;2023-04-24T11:48:54;94129.16;;;4.88
70415;BMP280;57837;52.064;113.478;2023-04-24T11:51:59;94129.63;;;4.76
70415;BMP280;57837;52.064;113.478;2023-04-24T11:55:03;94123.47;;;4.67
70415;BMP280;57837;52.064;113.478;2023-04-24T11:58:06;94133.81;;;4.59
70415;BMP280;57837;52.064;113.478;2023-04-24T12:01:10;94130.94;;;4.50
70415;BMP280;57837;52.064;113.478;2023-04-24T12:04:17;94122.97;;;4.38
70415;BMP280;57837;52.064;113.478;2023-04-24T12:07:22;94132.22;;;4.25
70415;BMP280;57837;52.064;113.478;2023-04-24T12:10:29;94128.59;;;4.22
70415;BMP280;57837;52.064;113.478;2023-04-24T12:13:34;94130.16;;;4.09
70415;BMP280;57837;52.064;113.478;2023-04-24T12:17:02;94136.84;;;3.92
70415;BMP280;57837;52.064;113.478;2023-04-24T12:20:07;94137.22;;;3.83
70415;BMP280;57837;52.064;113.478;2023-04-24T12:23:14;94139.47;;;3.74
70415;BMP280;57837;52.064;113.478;2023-04-24T12:26:19;94138.78;;;3.67
70415;BMP280;57837;52.064;113.478;2023-04-24T12:29:24;94137.75;;;3.54
70415;BMP280;57837;52.064;113.478;2023-04-24T12:32:27;94131.59;;;3.37
70415;BMP280;57837;52.064;113.478;2023-04-24T12:35:32;94141.50;;;3.24
70415;BMP280;57837;52.064;113.478;2023-04-24T12:38:36;94146.28;;;3.11
70415;BMP280;57837;52.064;113.478;2023-04-24T12:42:03;94138.25;;;2.99
70415;BMP280;57837;52.064;113.478;2023-04-24T12:45:07;94143.03;;;2.86
70415;BMP280;57837;52.064;113.478;2023-04-24T12:48:11;94140.81;;;2.74
70415;BMP280;57837;52.064;113.478;2023-04-24T12:51:14;94144.13;;;2.64
70415;BMP280;57837;52.064;113.478;2023-04-24T12:54:17;94143.41;;;2.60
70415;BMP280;57837;52.064;113.478;2023-04-24T12:57:21;94144.47;;;2.48
70415;BMP280;57837;52.064;113.478;2023-04-24T13:00:25;94146.69;;;2.42
70415;BMP280;57837;52.064;113.478;2023-04-24T13:03:29;94144.50;;;2.41
70415;BMP280;57837;52.064;113.478;2023-04-24T13:06:32;94148.88;;;2.40
70415;BMP280;57837;52.064;113.478;2023-04-24T13:09:36;94150.69;;;2.40
70415;BMP280;57837;52.064;113.478;2023-04-24T13:12:40;94160.16;;;2.32
70415;BMP280;57837;52.064;113.478;2023-04-24T13:15:43;94157.97;;;2.24
70415;BMP280;57837;52.064;113.478;2023-04-24T13:18:47;94156.16;;;2.17
70415;BMP280;57837;52.064;113.478;2023-04-24T13:21:50;94161.25;;;2.14
70415;BMP280;57837;52.064;113.478;2023-04-24T13:24:54;94151.38;;;2.12
70415;BMP280;57837;52.064;113.478;2023-04-24T13:27:59;94160.50;;;2.13
70415;BMP280;57837;52.064;113.478;2023-04-24T13:31:03;94152.13;;;2.13
70415;BMP280;57837;52.064;113.478;2023-04-24T13:34:06;94164.84;;;2.05
70415;BMP280;57837;52.064;113.478;2023-04-24T13:37:09;94167.75;;;2.00
70415;BMP280;57837;52.064;113.478;2023-04-24T13:40:13;94163.38;;;2.01
70415;BMP280;57837;52.064;113.478;2023-04-24T13:43:18;94166.28;;;1.99
70415;BMP280;57837;52.064;113.478;2023-04-24T13:46:21;94161.53;;;1.98
70415;BMP280;57837;52.064;113.478;2023-04-24T13:49:25;94156.78;;;1.89
70415;BMP280;57837;52.064;113.478;2023-04-24T13:52:29;94159.31;;;1.82
70415;BMP280;57837;52.064;113.478;2023-04-24T13:55:33;94162.97;;;1.81
70415;BMP280;57837;52.064;113.478;2023-04-24T13:58:37;94156.75;;;1.75
70415;BMP280;57837;52.064;113.478;2023-04-24T14:01:42;94158.16;;;1.69
70415;BMP280;57837;52.064;113.478;2023-04-24T14:04:45;94162.50;;;1.65
70415;BMP280;57837;52.064;113.478;2023-04-24T14:07:50;94157.78;;;1.60
70415;BMP280;57837;52.064;113.478;2023-04-24T14:10:53;94165.75;;;1.51
70415;BMP280;57837;52.064;113.478;2023-04-24T14:13:58;94164.59;;;1.42
70415;BMP280;57837;52.064;113.478;2023-04-24T14:17:01;94161.28;;;1.30
70415;BMP280;57837;52.064;113.478;2023-04-24T14:20:05;94165.25;;;1.24
70415;BMP280;57837;52.064;113.478;2023-04-24T14:23:10;94162.66;;;1.17
70415;BMP280;57837;52.064;113.478;2023-04-24T14:26:13;94157.91;;;1.16
70415;BMP280;57837;52.064;113.478;2023-04-24T14:29:17;94158.94;;;1.04
70415;BMP280;57837;52.064;113.478;2023-04-24T14:32:20;94161.81;;;0.99
70415;BMP280;57837;52.064;113.478;2023-04-24T14:35:23;94153.03;;;0.96
70415;BMP280;57837;52.064;113.478;2023-04-24T14:38:28;94157.06;;;0.97
70415;BMP280;57837;52.064;113.478;2023-04-24T14:41:31;94157.41;;;0.96
70415;BMP280;57837;52.064;113.478;2023-04-24T14:44:36;94157.69;;;0.87
70415;BMP280;57837;52.064;113.478;2023-04-24T14:47:40;94155.44;;;0.75
70415;BMP280;57837;52.064;113.478;2023-04-24T14:50:44;94158.31;;;0.70
70415;BMP280;57837;52.064;113.478;2023-04-24T14:53:49;94154.91;;;0.59
70415;BMP280;57837;52.064;113.478;2023-04-24T14:56:54;94153.44;;;0.54
70415;BMP280;57837;52.064;113.478;2023-04-24T15:00:00;94157.41;;;0.48
70415;BMP280;57837;52.064;113.478;2023-04-24T15:03:04;94155.22;;;0.50
70415;BMP280;57837;52.064;113.478;2023-04-24T15:06:07;94153.03;;;0.49
70415;BMP280;57837;52.064;113.478;2023-04-24T15:09:11;94154.44;;;0.43
70415;BMP280;57837;52.064;113.478;2023-04-24T15:12:14;94154.69;;;0.34
70415;BMP280;57837;52.064;113.478;2023-04-24T15:15:18;94155.03;;;0.32
70415;BMP280;57837;52.064;113.478;2023-04-24T15:18:22;94157.56;;;0.25
70415;BMP280;57837;52.064;113.478;2023-04-24T15:21:26;94149.88;;;0.18
70415;BMP280;57837;52.064;113.478;2023-04-24T15:24:29;94153.09;;;0.15
70415;BMP280;57837;52.064;113.478;2023-04-24T15:27:43;94154.19;;;0.14
70415;BMP280;57837;52.064;113.478;2023-04-24T15:30:48;94155.19;;;0.06
70415;BMP280;57837;52.064;113.478;2023-04-24T15:33:51;94153.72;;;0.05
70415;BMP280;57837;52.064;113.478;2023-04-24T15:36:54;94150.03;;;-0.01
70415;BMP280;57837;52.064;113.478;2023-04-24T15:39:58;94158.41;;;-0.01
70415;BMP280;57837;52.064;113.478;2023-04-24T15:43:02;94152.91;;;-0.03
70415;BMP280;57837;52.064;113.478;2023-04-24T15:46:07;94149.56;;;-0.10
70415;BMP280;57837;52.064;113.478;2023-04-24T15:49:11;94150.91;;;-0.20
70415;BMP280;57837;52.064;113.478;2023-04-24T15:52:15;94146.50;;;-0.23
70415;BMP280;57837;52.064;113.478;2023-04-24T15:55:18;94159.75;;;-0.37
70415;BMP280;57837;52.064;113.478;2023-04-24T15:58:22;94145.28;;;-0.32
70415;BMP280;57837;52.064;113.478;2023-04-24T16:01:25;94156.38;;;-0.18
70415;BMP280;57837;52.064;113.478;2023-04-24T16:04:30;94160.50;;;-0.06
70415;BMP280;57837;52.064;113.478;2023-04-24T16:07:34;94152.88;;;-0.06
70415;BMP280;57837;52.064;113.478;2023-04-24T16:10:38;94156.38;;;-0.18
70415;BMP280;57837;52.064;113.478;2023-04-24T16:13:42;94151.97;;;-0.21
70415;BMP280;57837;52.064;113.478;2023-04-24T16:16:46;94157.09;;;-0.17
70415;BMP280;57837;52.064;113.478;2023-04-24T16:19:50;94155.94;;;-0.23
70415;BMP280;57837;52.064;113.478;2023-04-24T16:22:54;94164.22;;;-0.30
70415;BMP280;57837;52.064;113.478;2023-04-24T16:25:57;94161.13;;;-0.43
70415;BMP280;57837;52.064;113.478;2023-04-24T16:29:01;94154.50;;;-0.51
70415;BMP280;57837;52.064;113.478;2023-04-24T16:32:05;94151.56;;;-0.53
70415;BMP280;57837;52.064;113.478;2023-04-24T16:35:09;94156.19;;;-0.62
70415;BMP280;57837;52.064;113.478;2023-04-24T16:38:12;94151.38;;;-0.67
70415;BMP280;57837;52.064;113.478;2023-04-24T16:41:16;94154.91;;;-0.75
70415;BMP280;57837;52.064;113.478;2023-04-24T16:44:20;94152.63;;;-0.84
70415;BMP280;57837;52.064;113.478;2023-04-24T16:47:24;94159.16;;;-0.83
70415;BMP280;57837;52.064;113.478;2023-04-24T16:50:28;94151.19;;;-0.81
70415;BMP280;57837;52.064;113.478;2023-04-24T16:53:32;94144.22;;;-0.88
70415;BMP280;57837;52.064;113.478;2023-04-24T16:56:35;94145.28;;;-0.89
70415;BMP280;57837;52.064;113.478;2023-04-24T16:59:39;94140.50;;;-0.94
70415;BMP280;57837;52.064;113.478;2023-04-24T17:02:43;94142.59;;;-0.99
70415;BMP280;57837;52.064;113.478;2023-04-24T17:05:51;94146.88;;;-1.04
70415;BMP280;57837;52.064;113.478;2023-04-24T17:08:54;94143.81;;;-1.16
70415;BMP280;57837;52.064;113.478;2023-04-24T17:11:58;94146.63;;;-1.21
70415;BMP280;57837;52.064;113.478;2023-04-24T17:15:02;94137.44;;;-1.29
70415;BMP280;57837;52.064;113.478;2023-04-24T17:18:06;94135.22;;;-1.54
70415;BMP280;57837;52.064;113.478;2023-04-24T17:21:09;94137.63;;;-1.61
70415;BMP280;57837;52.064;113.478;2023-04-24T17:24:14;94135.25;;;-1.73
70415;BMP280;57837;52.064;113.478;2023-04-24T17:27:17;94129.84;;;-1.72
70415;BMP280;57837;52.064;113.478;2023-04-24T17:30:21;94132.53;;;-1.61
70415;BMP280;57837;52.064;113.478;2023-04-24T17:33:26;94121.44;;;-1.53